sensor_id;sensor_type;location;lat;lon;timestamp;pressure;altitude;pressure_sealevel;temperature;humidity
28628;BME280;15815;46.760;19.604;2023-04-07T00:01:42;100096.47;;;3.73;87.85
28628;BME280;15815;46.760;19.604;2023-04-07T00:04:11;100128.34;;;3.95;87.65
28628;BME280;15815;46.760;19.604;2023-04-07T00:06:36;100120.78;;;3.96;87.83
28628;BME280;15815;46.760;19.604;2023-04-07T00:09:02;100114.06;;;3.97;88.92
28628;BME280;15815;46.760;19.604;2023-04-07T00:11:28;100120.00;;;3.95;88.45
28628;BME280;15815;46.760;19.604;2023-04-07T00:13:59;100094.38;;;3.86;88.29
28628;BME280;15815;46.760;19.604;2023-04-07T00:16:28;100101.56;;;3.87;88.48
28628;BME280;15815;46.760;19.604;2023-04-07T00:18:54;100096.72;;;3.84;87.80
28628;BME280;15815;46.760;19.604;2023-04-07T00:21:19;100111.34;;;4.00;88.26
28628;BME280;15815;46.760;19.604;2023-04-07T00:23:48;100106.00;;;3.92;88.39
28628;BME280;15815;46.760;19.604;2023-04-07T00:26:14;100145.13;;;4.18;88.65
28628;BME280;15815;46.760;19.604;2023-04-07T00:28:40;100134.78;;;4.19;87.98
28628;BME280;15815;46.760;19.604;2023-04-07T00:31:05;100098.91;;;3.94;87.68
28628;BME280;15815;46.760;19.604;2023-04-07T00:33:36;100095.56;;;3.85;87.91
28628;BME280;15815;46.760;19.604;2023-04-07T00:36:02;100127.75;;;4.06;87.23
28628;BME280;15815;46.760;19.604;2023-04-07T00:38:27;100117.94;;;3.92;87.07
28628;BME280;15815;46.760;19.604;2023-04-07T00:41:08;100141.34;;;4.11;87.66
28628;BME280;15815;46.760;19.604;2023-04-07T00:43:33;100097.16;;;3.86;87.29
28628;BME280;15815;46.760;19.604;2023-04-07T00:45:59;100113.19;;;3.93;87.24
28628;BME280;15815;46.760;19.604;2023-04-07T00:48:25;100125.19;;;3.97;87.19
28628;BME280;15815;46.760;19.604;2023-04-07T00:50:50;100108.28;;;3.86;87.06
28628;BME280;15815;46.760;19.604;2023-04-07T00:53:16;100129.94;;;3.96;87.56
28628;BME280;15815;46.760;19.604;2023-04-07T00:55:42;100124.00;;;3.98;87.21
28628;BME280;15815;46.760;19.604;2023-04-07T00:58:08;100120.28;;;3.90;87.56
28628;BME280;15815;46.760;19.604;2023-04-07T01:00:44;100085.94;;;3.63;87.87
28628;BME280;15815;46.760;19.604;2023-04-07T01:03:18;100102.56;;;3.79;88.03
28628;BME280;15815;46.760;19.604;2023-04-07T01:05:59;100124.88;;;4.02;88.70
28628;BME280;15815;46.760;19.604;2023-04-07T01:11:29;100092.31;;;3.83;88.52
28628;BME280;15815;46.760;19.604;2023-04-07T01:13:59;100084.84;;;3.68;88.98
28628;BME280;15815;46.760;19.604;2023-04-07T01:16:38;100087.34;;;3.73;89.36
28628;BME280;15815;46.760;19.604;2023-04-07T01:22:42;100105.13;;;3.88;88.89
28628;BME280;15815;46.760;19.604;2023-04-07T01:30:09;100096.63;;;3.81;89.23
28628;BME280;15815;46.760;19.604;2023-04-07T01:32:36;100069.13;;;3.56;89.82
28628;BME280;15815;46.760;19.604;2023-04-07T01:35:09;100075.25;;;3.65;89.72
28628;BME280;15815;46.760;19.604;2023-04-07T01:37:39;100073.56;;;3.61;90.07
28628;BME280;15815;46.760;19.604;2023-04-07T01:40:06;100084.25;;;3.59;89.59
28628;BME280;15815;46.760;19.604;2023-04-07T01:42:37;100062.66;;;3.52;90.01
28628;BME280;15815;46.760;19.604;2023-04-07T01:45:05;100087.34;;;3.73;89.44
28628;BME280;15815;46.760;19.604;2023-04-07T01:47:37;100086.75;;;3.83;88.94
28628;BME280;15815;46.760;19.604;2023-04-07T01:50:04;100057.72;;;3.61;88.73
28628;BME280;15815;46.760;19.604;2023-04-07T01:52:32;100091.88;;;3.81;88.49
28628;BME280;15815;46.760;19.604;2023-04-07T01:54:59;100098.59;;;3.80;89.18
28628;BME280;15815;46.760;19.604;2023-04-07T01:57:34;100105.22;;;3.91;88.49
28628;BME280;15815;46.760;19.604;2023-04-07T02:00:03;100070.94;;;3.68;88.94
28628;BME280;15815;46.760;19.604;2023-04-07T02:02:39;100113.84;;;3.86;89.55
28628;BME280;15815;46.760;19.604;2023-04-07T02:05:08;100089.81;;;3.78;88.96
28628;BME280;15815;46.760;19.604;2023-04-07T02:10:19;100099.41;;;3.81;89.64
28628;BME280;15815;46.760;19.604;2023-04-07T02:12:58;100092.91;;;3.73;89.99
28628;BME280;15815;46.760;19.604;2023-04-07T02:15:34;100104.25;;;3.84;89.99
28628;BME280;15815;46.760;19.604;2023-04-07T02:18:07;100103.97;;;3.89;89.96
28628;BME280;15815;46.760;19.604;2023-04-07T02:20:35;100090.19;;;3.77;90.25
28628;BME280;15815;46.760;19.604;2023-04-07T02:23:02;100072.13;;;3.67;90.00
28628;BME280;15815;46.760;19.604;2023-04-07T02:25:30;100080.31;;;3.79;89.48
28628;BME280;15815;46.760;19.604;2023-04-07T02:27:57;100080.31;;;3.79;89.56
28628;BME280;15815;46.760;19.604;2023-04-07T02:30:24;100087.78;;;3.75;89.47
28628;BME280;15815;46.760;19.604;2023-04-07T02:32:50;100094.38;;;3.86;89.61
28628;BME280;15815;46.760;19.604;2023-04-07T02:35:16;100076.13;;;3.69;89.91
28628;BME280;15815;46.760;19.604;2023-04-07T02:37:42;100082.72;;;3.81;89.97
28628;BME280;15815;46.760;19.604;2023-04-07T02:40:12;100054.56;;;3.63;89.66
28628;BME280;15815;46.760;19.604;2023-04-07T02:42:38;100081.69;;;3.69;90.11
28628;BME280;15815;46.760;19.604;2023-04-07T02:45:05;100069.91;;;3.76;89.86
28628;BME280;15815;46.760;19.604;2023-04-07T02:47:32;100078.25;;;3.76;89.64
28628;BME280;15815;46.760;19.604;2023-04-07T02:49:58;100068.25;;;3.71;89.62
28628;BME280;15815;46.760;19.604;2023-04-07T02:52:23;100087.66;;;3.87;89.55
28628;BME280;15815;46.760;19.604;2023-04-07T02:54:52;100070.88;;;3.64;89.68
28628;BME280;15815;46.760;19.604;2023-04-07T02:57:18;100070.16;;;3.67;89.81
28628;BME280;15815;46.760;19.604;2023-04-07T02:59:43;100065.59;;;3.59;89.42
28628;BME280;15815;46.760;19.604;2023-04-07T03:02:10;100047.69;;;3.57;89.39
28628;BME280;15815;46.760;19.604;2023-04-07T03:04:36;100048.72;;;3.68;89.42
28628;BME280;15815;46.760;19.604;2023-04-07T03:07:02;100069.13;;;3.76;89.16
28628;BME280;15815;46.760;19.604;2023-04-07T03:09:27;100079.56;;;3.82;89.76
28628;BME280;15815;46.760;19.604;2023-04-07T03:11:53;100055.38;;;3.63;90.19
28628;BME280;15815;46.760;19.604;2023-04-07T03:14:21;100060.28;;;3.70;89.50
28628;BME280;15815;46.760;19.604;2023-04-07T03:16:50;100068.16;;;3.68;89.59
28628;BME280;15815;46.760;19.604;2023-04-07T03:19:17;100056.38;;;3.55;89.80
28628;BME280;15815;46.760;19.604;2023-04-07T03:21:50;100088.38;;;3.84;90.03
28628;BME280;15815;46.760;19.604;2023-04-07T03:24:17;100056.47;;;3.59;90.32
28628;BME280;15815;46.760;19.604;2023-04-07T03:26:43;100063.34;;;3.65;90.05
28628;BME280;15815;46.760;19.604;2023-04-07T03:29:08;100081.47;;;3.78;90.09
28628;BME280;15815;46.760;19.604;2023-04-07T03:31:34;100077.03;;;3.73;89.51
28628;BME280;15815;46.760;19.604;2023-04-07T03:34:03;100060.84;;;3.60;89.71
28628;BME280;15815;46.760;19.604;2023-04-07T03:36:29;100047.34;;;3.42;89.76
28628;BME280;15815;46.760;19.604;2023-04-07T03:38:54;100048.59;;;3.45;89.79
28628;BME280;15815;46.760;19.604;2023-04-07T03:41:21;100087.25;;;3.69;89.91
28628;BME280;15815;46.760;19.604;2023-04-07T03:43:52;100098.97;;;3.79;89.75
28628;BME280;15815;46.760;19.604;2023-04-07T03:46:21;100094.00;;;3.68;89.57
28628;BME280;15815;46.760;19.604;2023-04-07T03:48:46;100047.66;;;3.37;90.16
28628;BME280;15815;46.760;19.604;2023-04-07T03:51:12;100091.41;;;3.60;90.03
28628;BME280;15815;46.760;19.604;2023-04-07T03:53:40;100094.94;;;3.57;90.26
28628;BME280;15815;46.760;19.604;2023-04-07T03:56:06;100088.59;;;3.40;91.18
28628;BME280;15815;46.760;19.604;2023-04-07T03:58:31;100103.94;;;3.34;91.54
28628;BME280;15815;46.760;19.604;2023-04-07T04:00:57;100107.53;;;3.35;91.85
28628;BME280;15815;46.760;19.604;2023-04-07T04:03:23;100078.06;;;3.15;92.23
28628;BME280;15815;46.760;19.604;2023-04-07T04:05:48;100109.31;;;3.27;92.26
28628;BME280;15815;46.760;19.604;2023-04-07T04:08:14;100082.38;;;3.12;92.40
28628;BME280;15815;46.760;19.604;2023-04-07T04:10:39;100098.41;;;3.19;92.45
28628;BME280;15815;46.760;19.604;2023-04-07T04:13:07;100107.00;;;3.29;92.23
28628;BME280;15815;46.760;19.604;2023-04-07T04:15:34;100085.88;;;3.09;92.18
28628;BME280;15815;46.760;19.604;2023-04-07T04:17:59;100075.66;;;2.97;92.21
28628;BME280;15815;46.760;19.604;2023-04-07T04:20:25;100100.28;;;3.15;92.30
28628;BME280;15815;46.760;19.604;2023-04-07T04:22:53;100099.84;;;3.13;92.95
28628;BME280;15815;46.760;19.604;2023-04-07T04:25:19;100098.50;;;3.06;92.66
28628;BME280;15815;46.760;19.604;2023-04-07T04:27:44;100100.09;;;3.23;91.92
28628;BME280;15815;46.760;19.604;2023-04-07T04:30:10;100094.00;;;3.18;91.92
28628;BME280;15815;46.760;19.604;2023-04-07T04:32:36;100117.19;;;3.25;92.05
28628;BME280;15815;46.760;19.604;2023-04-07T04:35:03;100129.91;;;3.26;92.75
28628;BME280;15815;46.760;19.604;2023-04-07T04:37:29;100107.19;;;3.05;92.94
28628;BME280;15815;46.760;19.604;2023-04-07T04:39:54;100091.25;;;3.02;93.13
28628;BME280;15815;46.760;19.604;2023-04-07T04:42:20;100093.84;;;3.10;93.17
28628;BME280;15815;46.760;19.604;2023-04-07T04:44:48;100105.19;;;3.21;92.84
28628;BME280;15815;46.760;19.604;2023-04-07T04:47:17;100094.38;;;3.16;92.66
28628;BME280;15815;46.760;19.604;2023-04-07T04:49:42;100101.63;;;3.21;92.47
28628;BME280;15815;46.760;19.604;2023-04-07T04:52:14;100108.34;;;3.20;92.99
28628;BME280;15815;46.760;19.604;2023-04-07T04:54:40;100128.66;;;3.39;92.92
28628;BME280;15815;46.760;19.604;2023-04-07T04:57:06;100129.81;;;3.38;92.75
28628;BME280;15815;46.760;19.604;2023-04-07T04:59:32;100100.28;;;3.15;92.87
28628;BME280;15815;46.760;19.604;2023-04-07T05:01:58;100109.22;;;3.24;92.24
28628;BME280;15815;46.760;19.604;2023-04-07T05:04:23;100123.66;;;3.29;92.36
28628;BME280;15815;46.760;19.604;2023-04-07T05:06:49;100121.84;;;3.21;92.20
28628;BME280;15815;46.760;19.604;2023-04-07T05:09:15;100110.31;;;3.19;92.53
28628;BME280;15815;46.760;19.604;2023-04-07T05:11:42;100102.13;;;3.26;92.33
28628;BME280;15815;46.760;19.604;2023-04-07T05:14:07;100133.28;;;3.51;92.58
28628;BME280;15815;46.760;19.604;2023-04-07T05:16:37;100084.50;;;3.34;92.02
28628;BME280;15815;46.760;19.604;2023-04-07T05:19:05;100127.66;;;3.48;92.31
28628;BME280;15815;46.760;19.604;2023-04-07T05:21:37;100142.19;;;3.57;92.65
28628;BME280;15815;46.760;19.604;2023-04-07T05:24:05;100122.38;;;3.42;92.60
28628;BME280;15815;46.760;19.604;2023-04-07T05:26:34;100136.63;;;3.41;92.73
28628;BME280;15815;46.760;19.604;2023-04-07T05:29:00;100128.81;;;3.47;92.58
28628;BME280;15815;46.760;19.604;2023-04-07T05:31:26;100124.56;;;3.33;93.67
28628;BME280;15815;46.760;19.604;2023-04-07T05:33:51;100128.91;;;3.50;93.10
28628;BME280;15815;46.760;19.604;2023-04-07T05:36:21;100141.00;;;3.58;92.73
28628;BME280;15815;46.760;19.604;2023-04-07T05:38:46;100104.09;;;3.41;92.77
28628;BME280;15815;46.760;19.604;2023-04-07T05:41:14;100122.72;;;3.57;92.50
28628;BME280;15815;46.760;19.604;2023-04-07T05:43:42;100129.97;;;3.61;93.10
28628;BME280;15815;46.760;19.604;2023-04-07T05:46:08;100125.59;;;3.60;92.60
28628;BME280;15815;46.760;19.604;2023-04-07T05:48:33;100134.34;;;3.62;92.34
28628;BME280;15815;46.760;19.604;2023-04-07T05:50:59;100138.47;;;3.68;92.09
28628;BME280;15815;46.760;19.604;2023-04-07T05:53:25;100119.81;;;3.69;92.12
28628;BME280;15815;46.760;19.604;2023-04-07T05:55:50;100111.09;;;3.70;92.02
28628;BME280;15815;46.760;19.604;2023-04-07T05:58:16;100124.16;;;3.86;91.48
28628;BME280;15815;46.760;19.604;2023-04-07T06:00:41;100131.41;;;3.90;92.19
28628;BME280;15815;46.760;19.604;2023-04-07T06:03:07;100141.59;;;4.02;92.24
28628;BME280;15815;46.760;19.604;2023-04-07T06:05:32;100140.66;;;4.14;92.05
28628;BME280;15815;46.760;19.604;2023-04-07T06:08:00;100154.34;;;4.22;91.68
28628;BME280;15815;46.760;19.604;2023-04-07T06:10:25;100123.66;;;3.99;92.58
28628;BME280;15815;46.760;19.604;2023-04-07T06:13:02;100146.56;;;4.31;92.57
28628;BME280;15815;46.760;19.604;2023-04-07T06:15:28;100145.63;;;4.43;91.80
28628;BME280;15815;46.760;19.604;2023-04-07T06:17:54;100123.56;;;4.34;91.07
28628;BME280;15815;46.760;19.604;2023-04-07T06:20:19;100124.22;;;4.47;91.25
28628;BME280;15815;46.760;19.604;2023-04-07T06:22:45;100142.59;;;4.71;90.82
28628;BME280;15815;46.760;19.604;2023-04-07T06:25:10;100121.28;;;4.59;90.22
28628;BME280;15815;46.760;19.604;2023-04-07T06:27:36;100123.47;;;4.70;90.43
28628;BME280;15815;46.760;19.604;2023-04-07T06:30:03;100158.84;;;4.92;90.00
28628;BME280;15815;46.760;19.604;2023-04-07T06:32:28;100149.00;;;4.94;89.30
28628;BME280;15815;46.760;19.604;2023-04-07T06:34:54;100130.56;;;4.90;89.35
28628;BME280;15815;46.760;19.604;2023-04-07T06:37:19;100137.03;;;4.71;89.33
28628;BME280;15815;46.760;19.604;2023-04-07T06:39:45;100136.66;;;4.95;89.79
28628;BME280;15815;46.760;19.604;2023-04-07T06:42:14;100129.22;;;5.03;89.03
28628;BME280;15815;46.760;19.604;2023-04-07T06:44:40;100153.19;;;5.31;88.51
28628;BME280;15815;46.760;19.604;2023-04-07T06:47:05;100142.03;;;5.31;88.54
28628;BME280;15815;46.760;19.604;2023-04-07T06:49:31;100152.53;;;5.41;87.66
28628;BME280;15815;46.760;19.604;2023-04-07T06:51:58;100140.53;;;5.37;86.59
28628;BME280;15815;46.760;19.604;2023-04-07T06:54:23;100143.75;;;5.39;87.08
28628;BME280;15815;46.760;19.604;2023-04-07T06:56:49;100139.84;;;5.43;87.41
28628;BME280;15815;46.760;19.604;2023-04-07T06:59:14;100143.84;;;5.46;87.07
28628;BME280;15815;46.760;19.604;2023-04-07T07:01:40;100154.69;;;5.24;85.76
28628;BME280;15815;46.760;19.604;2023-04-07T07:04:05;100167.19;;;5.61;86.98
28628;BME280;15815;46.760;19.604;2023-04-07T07:06:31;100159.84;;;5.49;86.16
28628;BME280;15815;46.760;19.604;2023-04-07T07:08:59;100148.34;;;5.50;86.37
28628;BME280;15815;46.760;19.604;2023-04-07T07:11:25;100144.75;;;5.50;85.71
28628;BME280;15815;46.760;19.604;2023-04-07T07:13:51;100172.94;;;5.71;86.05
28628;BME280;15815;46.760;19.604;2023-04-07T07:16:22;100158.09;;;5.64;86.03
28628;BME280;15815;46.760;19.604;2023-04-07T07:18:49;100152.16;;;5.42;85.75
28628;BME280;15815;46.760;19.604;2023-04-07T07:21:17;100183.97;;;5.64;84.55
28628;BME280;15815;46.760;19.604;2023-04-07T07:23:43;100149.63;;;5.56;84.24
28628;BME280;15815;46.760;19.604;2023-04-07T07:26:09;100164.69;;;5.78;84.73
28628;BME280;15815;46.760;19.604;2023-04-07T07:28:34;100186.94;;;6.01;84.26
28628;BME280;15815;46.760;19.604;2023-04-07T07:31:00;100193.47;;;6.09;84.08
28628;BME280;15815;46.760;19.604;2023-04-07T07:33:32;100179.25;;;5.68;81.82
28628;BME280;15815;46.760;19.604;2023-04-07T07:35:58;100185.06;;;5.82;83.84
28628;BME280;15815;46.760;19.604;2023-04-07T07:38:28;100198.91;;;6.02;83.02
28628;BME280;15815;46.760;19.604;2023-04-07T07:40:53;100166.91;;;5.92;83.22
28628;BME280;15815;46.760;19.604;2023-04-07T07:43:19;100191.03;;;6.07;82.73
28628;BME280;15815;46.760;19.604;2023-04-07T07:45:44;100186.84;;;5.94;82.56
28628;BME280;15815;46.760;19.604;2023-04-07T07:48:13;100182.44;;;6.19;82.89
28628;BME280;15815;46.760;19.604;2023-04-07T07:50:38;100197.19;;;6.20;81.34
28628;BME280;15815;46.760;19.604;2023-04-07T07:53:04;100189.66;;;6.24;82.81
28628;BME280;15815;46.760;19.604;2023-04-07T07:55:30;100173.91;;;6.39;82.81
28628;BME280;15815;46.760;19.604;2023-04-07T07:57:55;100200.28;;;6.41;80.18
28628;BME280;15815;46.760;19.604;2023-04-07T08:00:21;100196.56;;;6.64;81.61
28628;BME280;15815;46.760;19.604;2023-04-07T08:02:46;100195.34;;;6.61;81.45
28628;BME280;15815;46.760;19.604;2023-04-07T08:05:12;100195.41;;;6.68;81.42
28628;BME280;15815;46.760;19.604;2023-04-07T08:07:38;100200.78;;;6.50;80.36
28628;BME280;15815;46.760;19.604;2023-04-07T08:10:04;100195.53;;;6.45;79.95
28628;BME280;15815;46.760;19.604;2023-04-07T08:12:29;100199.63;;;6.55;80.87
28628;BME280;15815;46.760;19.604;2023-04-07T08:14:58;100175.69;;;5.94;77.52
28628;BME280;15815;46.760;19.604;2023-04-07T08:17:23;100194.03;;;5.95;79.38
28628;BME280;15815;46.760;19.604;2023-04-07T08:19:49;100186.75;;;6.13;79.46
28628;BME280;15815;46.760;19.604;2023-04-07T08:22:15;100201.84;;;6.39;79.33
28628;BME280;15815;46.760;19.604;2023-04-07T08:24:40;100213.31;;;6.64;79.73
28628;BME280;15815;46.760;19.604;2023-04-07T08:27:06;100195.81;;;6.67;80.15
28628;BME280;15815;46.760;19.604;2023-04-07T08:29:31;100219.97;;;6.86;80.21
28628;BME280;15815;46.760;19.604;2023-04-07T08:31:58;100210.53;;;6.64;78.55
28628;BME280;15815;46.760;19.604;2023-04-07T08:34:23;100221.00;;;6.40;77.75
28628;BME280;15815;46.760;19.604;2023-04-07T08:36:49;100214.84;;;6.91;78.28
28628;BME280;15815;46.760;19.604;2023-04-07T08:39:14;100214.63;;;7.10;77.98
28628;BME280;15815;46.760;19.604;2023-04-07T08:41:41;100204.84;;;6.90;76.66
28628;BME280;15815;46.760;19.604;2023-04-07T08:44:07;100202.84;;;7.31;78.14
28628;BME280;15815;46.760;19.604;2023-04-07T08:46:33;100207.34;;;6.99;75.38
28628;BME280;15815;46.760;19.604;2023-04-07T08:49:00;100240.78;;;6.92;75.42
28628;BME280;15815;46.760;19.604;2023-04-07T08:51:27;100239.38;;;7.49;77.61
28628;BME280;15815;46.760;19.604;2023-04-07T08:53:53;100206.78;;;7.67;76.88
28628;BME280;15815;46.760;19.604;2023-04-07T08:56:23;100209.69;;;7.82;77.52
28628;BME280;15815;46.760;19.604;2023-04-07T08:58:49;100206.19;;;7.95;76.47
28628;BME280;15815;46.760;19.604;2023-04-07T09:01:18;100241.97;;;8.23;76.84
28628;BME280;15815;46.760;19.604;2023-04-07T09:03:45;100225.81;;;7.99;76.09
28628;BME280;15815;46.760;19.604;2023-04-07T09:06:14;100225.56;;;8.25;76.89
28628;BME280;15815;46.760;19.604;2023-04-07T09:08:40;100218.78;;;8.23;76.74
28628;BME280;15815;46.760;19.604;2023-04-07T09:11:05;100221.69;;;7.86;72.03
28628;BME280;15815;46.760;19.604;2023-04-07T09:13:31;100200.66;;;8.06;74.70
28628;BME280;15815;46.760;19.604;2023-04-07T09:15:59;100223.81;;;8.68;74.71
28628;BME280;15815;46.760;19.604;2023-04-07T09:18:27;100225.69;;;8.43;72.50
28628;BME280;15815;46.760;19.604;2023-04-07T09:21:06;100225.59;;;9.30;71.75
28628;BME280;15815;46.760;19.604;2023-04-07T09:23:34;100197.16;;;9.53;71.04
28628;BME280;15815;46.760;19.604;2023-04-07T09:26:18;100216.00;;;9.42;72.03
28628;BME280;15815;46.760;19.604;2023-04-07T09:28:45;100236.88;;;9.66;72.95
28628;BME280;15815;46.760;19.604;2023-04-07T09:31:11;100223.22;;;9.36;68.87
28628;BME280;15815;46.760;19.604;2023-04-07T09:33:36;100247.28;;;9.62;72.10
28628;BME280;15815;46.760;19.604;2023-04-07T09:36:03;100231.25;;;9.80;71.03
28628;BME280;15815;46.760;19.604;2023-04-07T09:38:37;100227.59;;;10.08;71.31
28628;BME280;15815;46.760;19.604;2023-04-07T09:41:10;100238.44;;;10.31;70.59
28628;BME280;15815;46.760;19.604;2023-04-07T09:43:39;100252.88;;;10.11;72.07
28628;BME280;15815;46.760;19.604;2023-04-07T09:46:18;100232.78;;;9.31;69.60
28628;BME280;15815;46.760;19.604;2023-04-07T09:48:45;100246.88;;;9.59;69.20
28628;BME280;15815;46.760;19.604;2023-04-07T09:51:15;100230.84;;;9.56;70.48
28628;BME280;15815;46.760;19.604;2023-04-07T09:53:49;100250.06;;;9.58;71.34
28628;BME280;15815;46.760;19.604;2023-04-07T09:56:17;100231.59;;;9.28;71.25
28628;BME280;15815;46.760;19.604;2023-04-07T09:58:45;100244.84;;;9.35;68.69
28628;BME280;15815;46.760;19.604;2023-04-07T10:01:11;100244.41;;;9.26;70.66
28628;BME280;15815;46.760;19.604;2023-04-07T10:03:38;100230.81;;;9.35;70.77
28628;BME280;15815;46.760;19.604;2023-04-07T10:06:04;100228.41;;;9.34;70.91
28628;BME280;15815;46.760;19.604;2023-04-07T10:08:32;100237.19;;;9.18;70.42
28628;BME280;15815;46.760;19.604;2023-04-07T10:11:00;100242.38;;;9.09;69.85
28628;BME280;15815;46.760;19.604;2023-04-07T10:13:26;100231.91;;;8.98;70.78
28628;BME280;15815;46.760;19.604;2023-04-07T10:15:52;100235.09;;;8.83;71.26
28628;BME280;15815;46.760;19.604;2023-04-07T10:18:19;100225.84;;;8.75;71.78
28628;BME280;15815;46.760;19.604;2023-04-07T10:20:48;100213.84;;;8.78;70.98
28628;BME280;15815;46.760;19.604;2023-04-07T10:23:42;100243.09;;;8.88;70.72
28628;BME280;15815;46.760;19.604;2023-04-07T10:26:15;100209.38;;;8.63;71.48
28628;BME280;15815;46.760;19.604;2023-04-07T10:28:43;100251.19;;;9.07;72.23
28628;BME280;15815;46.760;19.604;2023-04-07T10:31:11;100260.34;;;8.90;70.96
28628;BME280;15815;46.760;19.604;2023-04-07T10:34:03;100224.69;;;8.87;71.22
28628;BME280;15815;46.760;19.604;2023-04-07T10:36:29;100219.03;;;8.76;71.09
28628;BME280;15815;46.760;19.604;2023-04-07T10:41:40;100240.78;;;9.15;71.41
28628;BME280;15815;46.760;19.604;2023-04-07T10:44:08;100220.69;;;8.88;70.11
28628;BME280;15815;46.760;19.604;2023-04-07T10:49:12;100225.91;;;8.93;71.29
28628;BME280;15815;46.760;19.604;2023-04-07T10:51:38;100230.31;;;9.01;70.64
28628;BME280;15815;46.760;19.604;2023-04-07T10:54:22;100230.28;;;8.83;68.02
28628;BME280;15815;46.760;19.604;2023-04-07T10:57:07;100255.16;;;8.99;68.42
28628;BME280;15815;46.760;19.604;2023-04-07T10:59:33;100266.38;;;9.03;70.46
28628;BME280;15815;46.760;19.604;2023-04-07T11:04:47;100225.56;;;9.12;70.27
28628;BME280;15815;46.760;19.604;2023-04-07T11:07:13;100251.22;;;9.25;69.01
28628;BME280;15815;46.760;19.604;2023-04-07T11:09:40;100242.84;;;9.39;70.17
28628;BME280;15815;46.760;19.604;2023-04-07T11:12:06;100241.66;;;9.47;69.46
28628;BME280;15815;46.760;19.604;2023-04-07T11:14:32;100249.25;;;9.50;69.36
28628;BME280;15815;46.760;19.604;2023-04-07T11:16:59;100241.22;;;9.31;69.46
28628;BME280;15815;46.760;19.604;2023-04-07T11:19:25;100235.19;;;9.22;69.03
28628;BME280;15815;46.760;19.604;2023-04-07T11:22:13;100239.25;;;9.35;66.60
28628;BME280;15815;46.760;19.604;2023-04-07T11:24:39;100261.69;;;9.46;65.16
28628;BME280;15815;46.760;19.604;2023-04-07T11:27:09;100244.84;;;9.49;66.52
28628;BME280;15815;46.760;19.604;2023-04-07T11:29:36;100247.66;;;9.32;68.10
28628;BME280;15815;46.760;19.604;2023-04-07T11:32:03;100262.50;;;9.53;67.96
28628;BME280;15815;46.760;19.604;2023-04-07T11:34:30;100256.06;;;9.35;68.63
28628;BME280;15815;46.760;19.604;2023-04-07T11:36:56;100237.59;;;9.27;68.98
28628;BME280;15815;46.760;19.604;2023-04-07T11:39:25;100249.59;;;9.13;67.79
28628;BME280;15815;46.760;19.604;2023-04-07T11:41:51;100253.22;;;9.14;67.06
28628;BME280;15815;46.760;19.604;2023-04-07T11:44:16;100265.63;;;9.20;67.12
28628;BME280;15815;46.760;19.604;2023-04-07T11:46:56;100256.41;;;9.09;66.04
28628;BME280;15815;46.760;19.604;2023-04-07T11:49:24;100264.31;;;8.85;67.08
28628;BME280;15815;46.760;19.604;2023-04-07T11:52:04;100262.31;;;8.79;67.16
28628;BME280;15815;46.760;19.604;2023-04-07T11:54:47;100262.63;;;8.63;67.57
28628;BME280;15815;46.760;19.604;2023-04-07T11:57:22;100246.69;;;8.81;68.80
28628;BME280;15815;46.760;19.604;2023-04-07T11:59:48;100243.13;;;9.02;67.74
28628;BME280;15815;46.760;19.604;2023-04-07T12:02:35;100239.91;;;8.86;67.43
28628;BME280;15815;46.760;19.604;2023-04-07T12:05:00;100255.84;;;8.75;68.61
28628;BME280;15815;46.760;19.604;2023-04-07T12:07:28;100269.13;;;8.88;69.43
28628;BME280;15815;46.760;19.604;2023-04-07T12:09:54;100243.78;;;8.56;67.69
28628;BME280;15815;46.760;19.604;2023-04-07T12:12:27;100233.38;;;8.57;69.43
28628;BME280;15815;46.760;19.604;2023-04-07T12:14:53;100254.28;;;8.77;68.77
28628;BME280;15815;46.760;19.604;2023-04-07T12:17:23;100265.97;;;9.01;69.15
28628;BME280;15815;46.760;19.604;2023-04-07T12:19:49;100242.25;;;8.73;68.97
28628;BME280;15815;46.760;19.604;2023-04-07T12:22:15;100259.50;;;8.82;68.77
28628;BME280;15815;46.760;19.604;2023-04-07T12:24:41;100253.50;;;8.84;69.15
28628;BME280;15815;46.760;19.604;2023-04-07T12:27:10;100261.13;;;8.90;68.00
28628;BME280;15815;46.760;19.604;2023-04-07T12:29:36;100250.59;;;7.97;68.78
28628;BME280;15815;46.760;19.604;2023-04-07T12:32:05;100242.69;;;8.13;69.31
28628;BME280;15815;46.760;19.604;2023-04-07T12:34:31;100238.66;;;8.07;69.33
28628;BME280;15815;46.760;19.604;2023-04-07T12:36:58;100250.81;;;8.32;68.49
28628;BME280;15815;46.760;19.604;2023-04-07T12:39:23;100242.41;;;8.32;67.05
28628;BME280;15815;46.760;19.604;2023-04-07T12:41:49;100245.69;;;8.42;67.63
28628;BME280;15815;46.760;19.604;2023-04-07T12:44:15;100244.41;;;8.32;67.70
28628;BME280;15815;46.760;19.604;2023-04-07T12:46:43;100245.19;;;8.25;68.48
28628;BME280;15815;46.760;19.604;2023-04-07T12:49:09;100251.63;;;8.33;69.31
28628;BME280;15815;46.760;19.604;2023-04-07T12:51:58;100273.38;;;8.54;68.40
28628;BME280;15815;46.760;19.604;2023-04-07T12:54:24;100243.69;;;8.39;68.70
28628;BME280;15815;46.760;19.604;2023-04-07T12:56:52;100266.13;;;8.46;68.01
28628;BME280;15815;46.760;19.604;2023-04-07T12:59:18;100275.22;;;8.32;68.50
28628;BME280;15815;46.760;19.604;2023-04-07T13:01:43;100263.88;;;8.11;67.70
28628;BME280;15815;46.760;19.604;2023-04-07T13:04:09;100265.91;;;8.17;67.48
28628;BME280;15815;46.760;19.604;2023-04-07T13:06:34;100269.28;;;8.37;67.67
28628;BME280;15815;46.760;19.604;2023-04-07T13:09:00;100276.13;;;8.47;67.69
28628;BME280;15815;46.760;19.604;2023-04-07T13:11:26;100276.47;;;8.38;68.08
28628;BME280;15815;46.760;19.604;2023-04-07T13:13:51;100272.06;;;8.33;68.47
28628;BME280;15815;46.760;19.604;2023-04-07T13:16:17;100280.13;;;8.46;68.93